Time;durP1;ratioP1;P1;durP2;ratioP2;P2;SDS_P1;SDS_P2;PMS_P1;PMS_P2;Temp;Humidity;BMP_temperature;BMP_pressure;BME280_temperature;BME280_humidity;BME280_pressure;Samples;Min_cycle;Max_cycle;Signal;HPM_P1;HPM_P2
2021/09/19 00:00:38;;;;;;;;;;;;;;;18.08;80.21;100825.22;1763143;81;20224;-74
2021/09/19 00:03:06;;;;;;;;;;;;;;;18.10;80.31;100827.99;1748144;81;20221;-75
2021/09/19 00:05:39;;;;;;;;;;;;;;;18.11;80.28;100826.03;1721872;83;20188;-75
2021/09/19 00:08:13;;;;;;;;;;;;;;;18.10;80.12;100827.18;1722599;83;20187;-76
2021/09/19 00:10:44;;;;;;;;;;;;;;;18.06;80.04;100827.52;1722864;83;20246;-76
2021/09/19 00:13:17;;;;;;;;;;;;;;;18.02;80.08;100834.88;1722490;83;20240;-75
2021/09/19 00:15:53;;;;;;;;;;;;;;;18.01;80.13;100834.63;1722531;83;20207;31
2021/09/19 00:18:25;;;;;;;;;;;;;;;18.02;80.21;100833.48;1692049;84;20224;-76
2021/09/19 00:20:57;;;;;;;;;;;;;;;18.01;80.18;100833.22;1685794;84;20260;-76
2021/09/19 00:23:28;;;;;;;;;;;;;;;17.99;80.21;100830.70;1686219;85;20256;-76
2021/09/19 00:26:00;;;;;;;;;;;;;;;17.95;80.19;100828.27;1707934;83;20308;-76
2021/09/19 00:28:32;;;;;;;;;;;;;;;17.91;80.24;100829.19;1711146;83;20193;-75
2021/09/19 00:31:04;;;;;;;;;;;;;;;17.91;80.35;100832.00;1711735;83;20312;-77
2021/09/19 00:33:35;;;;;;;;;;;;;;;17.92;80.41;100826.05;1668861;85;20247;-78
2021/09/19 00:36:08;;;;;;;;;;;;;;;17.93;80.36;100826.90;1678864;85;20286;-84
2021/09/19 00:38:40;;;;;;;;;;;;;;;17.89;80.28;100828.08;1684864;84;20265;-78
2021/09/19 00:41:11;;;;;;;;;;;;;;;17.84;80.19;100826.75;1686997;84;20218;-74
2021/09/19 00:43:44;;;;;;;;;;;;;;;17.81;80.29;100830.16;1686829;85;20190;-76
2021/09/19 00:46:17;;;;;;;;;;;;;;;17.81;80.45;100827.94;1684913;85;20226;-76
2021/09/19 00:48:48;;;;;;;;;;;;;;;17.84;80.43;100834.33;1679904;85;20270;-73
2021/09/19 00:51:20;;;;;;;;;;;;;;;17.87;80.40;100831.74;1679740;85;20619;-76
2021/09/19 00:53:52;;;;;;;;;;;;;;;17.88;80.20;100840.47;1679762;85;20313;-75
2021/09/19 00:56:28;;;;;;;;;;;;;;;17.87;80.09;100834.55;1679761;85;20194;-76
2021/09/19 00:59:01;;;;;;;;;;;;;;;17.88;80.02;100840.47;1679842;85;20247;-76
2021/09/19 01:01:33;;;;;;;;;;;;;;;17.85;79.88;100839.66;1687873;84;20282;-74
2021/09/19 01:04:04;;;;;;;;;;;;;;;17.85;79.98;100837.43;1686416;84;20265;-79
2021/09/19 01:06:37;;;;;;;;;;;;;;;17.82;80.11;100840.84;1687667;84;20198;-77
2021/09/19 01:09:09;;;;;;;;;;;;;;;17.73;79.99;100842.67;1687583;84;20242;-78
2021/09/19 01:11:41;;;;;;;;;;;;;;;17.69;80.05;100840.20;1687634;85;20309;-79
2021/09/19 01:14:17;;;;;;;;;;;;;;;17.63;80.09;100836.61;1686911;85;20190;-77
2021/09/19 01:16:49;;;;;;;;;;;;;;;17.58;80.13;100838.12;1685942;85;20230;-73
2021/09/19 01:19:24;;;;;;;;;;;;;;;17.56;80.38;100839.55;1703712;84;20228;-74
2021/09/19 01:21:58;;;;;;;;;;;;;;;17.54;80.38;100840.41;1706276;84;20200;-73
2021/09/19 01:24:30;;;;;;;;;;;;;;;17.51;80.44;100839.06;1701356;84;20218;-72
2021/09/19 01:27:02;;;;;;;;;;;;;;;17.48;80.32;100838.81;1681451;85;20259;-73
2021/09/19 01:29:34;;;;;;;;;;;;;;;17.45;80.34;100842.23;1681456;85;20186;-72
2021/09/19 01:32:06;;;;;;;;;;;;;;;17.42;80.36;100841.42;1681547;82;20612;-81
2021/09/19 01:34:37;;;;;;;;;;;;;;;17.40;80.55;100845.95;1741189;82;20258;-77
2021/09/19 01:37:10;;;;;;;;;;;;;;;17.38;80.36;100851.02;1732721;81;20250;-78
2021/09/19 01:39:42;;;;;;;;;;;;;;;17.32;80.36;100856.98;1756195;82;20279;-77
2021/09/19 01:42:19;;;;;;;;;;;;;;;17.24;80.33;100852.05;1756531;82;20221;-75
2021/09/19 01:44:51;;;;;;;;;;;;;;;17.16;80.54;100851.30;1756971;82;20227;-92
2021/09/19 01:47:22;;;;;;;;;;;;;;;17.13;80.73;100856.94;1756635;80;20236;-85
2021/09/19 01:49:56;;;;;;;;;;;;;;;17.13;80.86;100849.10;1756329;82;20228;-87
2021/09/19 01:52:30;;;;;;;;;;;;;;;17.14;80.95;100854.39;1757099;81;20232;-89
2021/09/19 01:55:02;;;;;;;;;;;;;;;17.18;80.92;100855.47;1753164;82;20561;-81
2021/09/19 01:57:33;;;;;;;;;;;;;;;17.18;80.71;100847.64;1725427;83;20231;-86
2021/09/19 02:00:06;;;;;;;;;;;;;;;17.09;80.48;100856.44;1725679;83;20180;-83
2021/09/19 02:02:38;;;;;;;;;;;;;;;17.00;80.76;100861.88;1725199;83;20247;-78
2021/09/19 02:05:11;;;;;;;;;;;;;;;16.95;80.84;100858.30;1724806;83;20260;-87
2021/09/19 02:07:42;;;;;;;;;;;;;;;16.88;81.14;100861.45;1725022;83;20236;-71
2021/09/19 02:10:18;;;;;;;;;;;;;;;16.95;81.34;100861.92;1724854;83;20603;-88
2021/09/19 02:12:50;;;;;;;;;;;;;;;17.02;81.32;100858.19;1737852;81;20246;-82
2021/09/19 02:15:24;;;;;;;;;;;;;;;17.07;81.13;100858.72;1720545;81;20192;-85
2021/09/19 02:17:55;;;;;;;;;;;;;;;17.08;80.99;100855.59;1727279;81;20268;-81
2021/09/19 02:20:27;;;;;;;;;;;;;;;17.06;80.87;100859.27;1760215;81;20299;-78
2021/09/19 02:22:59;;;;;;;;;;;;;;;17.04;80.79;100862.11;1712698;82;20197;-80
2021/09/19 02:25:33;;;;;;;;;;;;;;;17.02;80.75;100853.16;1722311;83;20233;-77
2021/09/19 02:28:04;;;;;;;;;;;;;;;17.00;80.88;100848.43;1724254;82;20277;-86
2021/09/19 02:30:36;;;;;;;;;;;;;;;17.05;80.85;100856.76;1688817;81;20302;-76
2021/09/19 02:33:09;;;;;;;;;;;;;;;17.06;80.67;100859.86;1664481;85;20218;-75
2021/09/19 02:35:41;;;;;;;;;;;;;;;17.02;80.52;100854.56;1662338;85;20543;-76
2021/09/19 02:38:13;;;;;;;;;;;;;;;17.01;80.71;100865.53;1660094;85;20623;-75
2021/09/19 02:40:45;;;;;;;;;;;;;;;17.04;80.84;100857.90;1660277;85;20199;-77
2021/09/19 02:43:17;;;;;;;;;;;;;;;17.11;80.72;100861.17;1661264;85;20449;-77
2021/09/19 02:45:49;;;;;;;;;;;;;;;17.16;80.58;100865.33;1661627;85;20276;-75
2021/09/19 02:48:21;;;;;;;;;;;;;;;17.18;80.23;100861.67;1661759;85;20203;-76
2021/09/19 02:50:53;;;;;;;;;;;;;;;17.16;80.05;100860.56;1660209;85;20606;-76
2021/09/19 02:53:26;;;;;;;;;;;;;;;17.15;79.98;100855.24;1660065;85;20271;-77
2021/09/19 02:55:57;;;;;;;;;;;;;;;17.11;79.91;100858.37;1661020;85;20239;-75
2021/09/19 02:58:29;;;;;;;;;;;;;;;17.10;80.09;100852.49;1661405;85;20183;-77
2021/09/19 03:01:02;;;;;;;;;;;;;;;17.11;80.05;100849.95;1659949;86;20287;-76
2021/09/19 03:03:35;;;;;;;;;;;;;;;17.10;79.99;100851.09;1661516;85;20199;-77
2021/09/19 03:06:10;;;;;;;;;;;;;;;17.06;79.98;100851.44;1640519;85;20257;-77
2021/09/19 03:08:43;;;;;;;;;;;;;;;17.03;79.98;100850.63;1647577;86;20203;-78
2021/09/19 03:11:14;;;;;;;;;;;;;;;16.98;80.06;100852.93;1661030;85;20607;-77
2021/09/19 03:13:47;;;;;;;;;;;;;;;16.99;80.26;100846.17;1663180;85;20230;-74
2021/09/19 03:16:21;;;;;;;;;;;;;;;16.99;80.12;100850.94;1661109;85;20547;-73
2021/09/19 03:18:53;;;;;;;;;;;;;;;17.02;80.18;100854.56;1660181;85;20230;-76
2021/09/19 03:21:25;;;;;;;;;;;;;;;17.03;80.09;100854.83;1661621;85;20259;-77
2021/09/19 03:23:57;;;;;;;;;;;;;;;17.01;79.87;100855.13;1660699;84;20210;-77
2021/09/19 03:26:29;;;;;;;;;;;;;;;17.00;79.85;100859.66;1661197;85;20595;-75
2021/09/19 03:29:01;;;;;;;;;;;;;;;16.96;79.96;100862.77;1660727;85;20551;-76
2021/09/19 03:31:34;;;;;;;;;;;;;;;16.96;79.94;100860.78;1661500;85;20266;-75
2021/09/19 03:34:08;;;;;;;;;;;;;;;16.99;80.00;100862.16;1662902;86;20543;-75
2021/09/19 03:36:39;;;;;;;;;;;;;;;16.99;80.00;100859.36;1666078;85;20286;-76
2021/09/19 03:39:11;;;;;;;;;;;;;;;17.03;79.94;100863.25;1665265;86;20262;-74
2021/09/19 03:41:43;;;;;;;;;;;;;;;17.02;79.68;100867.19;1663296;86;20187;-76
2021/09/19 03:44:16;;;;;;;;;;;;;;;16.98;79.69;100873.12;1663255;85;20190;-76
2021/09/19 03:46:49;;;;;;;;;;;;;;;16.94;79.80;100865.05;1666245;85;20542;-79
2021/09/19 03:49:20;;;;;;;;;;;;;;;16.93;79.89;100875.42;1665352;86;20258;-80
2021/09/19 03:51:52;;;;;;;;;;;;;;;16.94;79.90;100873.47;1662973;86;20248;-79
2021/09/19 03:54:24;;;;;;;;;;;;;;;16.96;79.94;100872.01;1661845;85;20199;-79
2021/09/19 03:56:57;;;;;;;;;;;;;;;17.02;79.86;100873.63;1664539;85;20207;-79
2021/09/19 03:59:29;;;;;;;;;;;;;;;17.05;79.74;100878.66;1664351;85;20202;-77
2021/09/19 04:02:01;;;;;;;;;;;;;;;17.06;79.55;100873.89;1663144;85;20182;-76
2021/09/19 04:04:33;;;;;;;;;;;;;;;17.05;79.49;100879.20;1661328;82;20254;-77
2021/09/19 04:07:06;;;;;;;;;;;;;;;17.02;79.64;100880.64;1657752;86;20591;-79
2021/09/19 04:09:37;;;;;;;;;;;;;;;17.04;79.83;100881.20;1656905;86;20223;-78
2021/09/19 04:12:09;;;;;;;;;;;;;;;17.05;79.76;100878.66;1656787;87;20579;-79
2021/09/19 04:14:41;;;;;;;;;;;;;;;17.04;79.83;100880.34;1656832;87;20557;-81
2021/09/19 04:17:14;;;;;;;;;;;;;;;17.05;79.79;100877.80;1657049;87;20237;-81
2021/09/19 04:19:46;;;;;;;;;;;;;;;17.06;79.73;100881.72;1657356;87;20306;-81
2021/09/19 04:22:18;;;;;;;;;;;;;;;17.08;79.65;100887.05;1657308;87;20189;-82
2021/09/19 04:24:50;;;;;;;;;;;;;;;17.05;79.56;100876.40;1657536;87;20315;-78
2021/09/19 04:27:22;;;;;;;;;;;;;;;17.07;79.73;100872.16;1658058;86;20327;-80
2021/09/19 04:29:53;;;;;;;;;;;;;;;17.09;79.71;100874.13;1657897;86;20198;-82
2021/09/19 04:32:27;;;;;;;;;;;;;;;17.13;79.73;100865.94;1658072;87;20311;-80
2021/09/19 04:34:58;;;;;;;;;;;;;;;17.16;79.76;100865.33;1658987;86;20659;-83
2021/09/19 04:37:37;;;;;;;;;;;;;;;17.19;79.78;100864.16;1658567;85;20198;-79
2021/09/19 04:40:10;;;;;;;;;;;;;;;17.24;79.90;100873.11;1664265;86;20250;-78
2021/09/19 04:42:42;;;;;;;;;;;;;;;17.28;80.18;100876.41;1669590;84;20615;-78
2021/09/19 04:45:13;;;;;;;;;;;;;;;17.37;80.23;100880.79;1660901;85;20308;-78
2021/09/19 04:47:45;;;;;;;;;;;;;;;17.43;80.21;100883.25;1705195;84;20189;-76
2021/09/19 04:50:17;;;;;;;;;;;;;;;17.37;80.03;100886.41;1705496;84;20229;-76
2021/09/19 04:52:49;;;;;;;;;;;;;;;17.33;80.49;100887.58;1705424;84;20592;-75
2021/09/19 04:55:21;;;;;;;;;;;;;;;17.35;80.83;100890.06;1705536;83;20233;-76
2021/09/19 04:57:53;;;;;;;;;;;;;;;17.42;81.05;100894.77;1705541;84;20225;-78
2021/09/19 05:00:25;;;;;;;;;;;;;;;17.56;81.31;100899.34;1706931;83;20196;-77
2021/09/19 05:02:57;;;;;;;;;;;;;;;17.74;81.29;100902.75;1704418;84;20557;-78
2021/09/19 05:05:30;;;;;;;;;;;;;;;17.93;80.99;100901.36;1705147;83;20244;-77
2021/09/19 05:08:03;;;;;;;;;;;;;;;18.01;80.41;100902.07;1715015;80;20262;-81
2021/09/19 05:10:36;;;;;;;;;;;;;;;18.18;80.17;100898.15;1717758;83;20650;-79
2021/09/19 05:13:08;;;;;;;;;;;;;;;18.35;79.59;100905.50;1721289;83;20556;-77
2021/09/19 05:15:40;;;;;;;;;;;;;;;18.42;78.99;100904.53;1720951;83;20300;-80
2021/09/19 05:18:20;;;;;;;;;;;;;;;18.49;79.34;100906.38;1720762;83;20200;-86
2021/09/19 05:20:52;;;;;;;;;;;;;;;18.69;79.17;100913.03;1718094;83;20275;-80
2021/09/19 05:23:32;;;;;;;;;;;;;;;18.91;78.48;100901.94;1721907;83;20192;-81
2021/09/19 05:26:08;;;;;;;;;;;;;;;19.14;77.96;100908.78;1720000;83;20299;-76
2021/09/19 05:28:43;;;;;;;;;;;;;;;19.35;76.79;100908.69;1719903;83;20196;-78
2021/09/19 05:31:16;;;;;;;;;;;;;;;19.50;75.40;100913.16;1699775;83;20318;-84
2021/09/19 05:33:51;;;;;;;;;;;;;;;19.55;74.58;100911.06;1722450;83;20644;-88
2021/09/19 05:36:23;;;;;;;;;;;;;;;19.58;74.07;100919.46;1725976;83;20987;-81
2021/09/19 05:38:54;;;;;;;;;;;;;;;19.66;74.50;100911.11;1725493;83;20458;-76
2021/09/19 05:41:26;;;;;;;;;;;;;;;19.74;74.02;100909.54;1725060;83;20272;-76
2021/09/19 05:44:00;;;;;;;;;;;;;;;19.81;73.11;100916.98;1725678;83;20227;-77
2021/09/19 05:46:31;;;;;;;;;;;;;;;19.88;72.87;100920.20;1726313;83;20283;-77
2021/09/19 05:49:03;;;;;;;;;;;;;;;19.89;72.04;100919.89;1725788;83;20259;-75
2021/09/19 05:51:35;;;;;;;;;;;;;;;19.98;72.34;100922.77;1728604;83;20208;-76
2021/09/19 05:54:15;;;;;;;;;;;;;;;20.23;72.60;100925.05;1729369;83;20248;-75
2021/09/19 05:56:42;;;;;;;;;;;;;;;20.59;72.76;100932.86;1730335;83;20268;-75
2021/09/19 05:59:14;;;;;;;;;;;;;;;20.82;71.21;100926.90;1729260;83;20656;-73
2021/09/19 06:01:45;;;;;;;;;;;;;;;20.98;70.69;100923.12;1729078;83;20220;-75
2021/09/19 06:04:17;;;;;;;;;;;;;;;20.98;69.58;100914.05;1721234;83;20219;-71
2021/09/19 06:06:49;;;;;;;;;;;;;;;20.94;69.03;100915.88;1729779;83;20636;-74
2021/09/19 06:09:21;;;;;;;;;;;;;;;21.02;68.89;100907.20;1710655;83;20225;-73
2021/09/19 06:12:06;;;;;;;;;;;;;;;;;;;;;
2021/09/19 06:14:26;;;;;;;;;;;;;;;21.25;68.04;100902.56;1690944;83;20234;-71
2021/09/19 06:17:01;;;;;;;;;;;;;;;21.32;67.72;100900.66;1695001;83;20190;-72
2021/09/19 06:19:32;;;;;;;;;;;;;;;21.45;68.13;100906.20;1695000;85;20261;-72
2021/09/19 06:22:05;;;;;;;;;;;;;;;21.64;67.36;100902.52;1694872;85;20653;-76
2021/09/19 06:24:36;;;;;;;;;;;;;;;21.90;67.18;100904.02;1701135;83;21116;-72
2021/09/19 06:27:08;;;;;;;;;;;;;;;22.20;66.74;100910.12;1694714;83;20202;-73
2021/09/19 06:29:41;;;;;;;;;;;;;;;22.43;65.31;100904.58;1704214;83;20339;-73
2021/09/19 06:32:15;;;;;;;;;;;;;;;22.75;65.96;100902.02;1752342;82;20324;-72
2021/09/19 06:34:47;;;;;;;;;;;;;;;23.17;64.43;100894.61;1752388;82;20209;-74
2021/09/19 06:37:18;;;;;;;;;;;;;;;23.54;63.89;100901.67;1752422;80;20186;-73
2021/09/19 06:39:50;;;;;;;;;;;;;;;23.83;62.63;100899.44;1750444;82;20226;-74
2021/09/19 06:42:21;;;;;;;;;;;;;;;24.05;61.15;100898.55;1734836;82;20206;-73
2021/09/19 06:44:53;;;;;;;;;;;;;;;24.23;60.91;100904.91;1749304;82;20246;-74
2021/09/19 06:47:26;;;;;;;;;;;;;;;24.44;60.39;100901.50;1749513;82;20245;-73
2021/09/19 06:49:59;;;;;;;;;;;;;;;24.63;59.01;100897.58;1749401;82;20222;-72
2021/09/19 06:52:31;;;;;;;;;;;;;;;24.74;57.39;100894.55;1749701;82;20266;-74
2021/09/19 06:55:05;;;;;;;;;;;;;;;24.62;56.37;100890.24;1749306;82;20305;-72
2021/09/19 06:57:37;;;;;;;;;;;;;;;24.56;57.41;100901.55;1749382;82;20308;-74
2021/09/19 07:00:10;;;;;;;;;;;;;;;24.56;56.73;100893.84;1749190;82;20225;-73
2021/09/19 07:02:42;;;;;;;;;;;;;;;24.52;56.45;100897.73;1719482;82;20224;-73
2021/09/19 07:05:15;;;;;;;;;;;;;;;24.49;56.77;100899.83;1740414;82;20310;-73
2021/09/19 07:07:48;;;;;;;;;;;;;;;24.42;56.91;100903.25;1726283;80;20332;-77
2021/09/19 07:10:22;;;;;;;;;;;;;;;24.35;56.54;100900.72;1685859;85;20579;-78
2021/09/19 07:12:56;;;;;;;;;;;;;;;24.31;57.17;100904.84;1658960;85;20296;-77
2021/09/19 07:15:28;;;;;;;;;;;;;;;24.32;56.83;100896.56;1699221;83;20258;-77
2021/09/19 07:17:59;;;;;;;;;;;;;;;24.28;56.92;100894.20;1687866;84;20213;-77
2021/09/19 07:20:43;;;;;;;;;;;;;;;24.28;56.10;100894.77;1672361;85;20200;-75
2021/09/19 07:23:17;;;;;;;;;;;;;;;24.20;55.48;100898.52;1715345;83;20228;-73
2021/09/19 07:25:52;;;;;;;;;;;;;;;24.13;55.93;100893.39;1691376;83;20222;-74
2021/09/19 07:28:26;;;;;;;;;;;;;;;24.13;55.88;100891.97;1696564;83;20323;-74
2021/09/19 07:31:01;;;;;;;;;;;;;;;24.11;55.70;100893.48;1707900;82;20307;-73
2021/09/19 07:33:33;;;;;;;;;;;;;;;24.12;55.89;100890.89;1714434;81;20690;-73
2021/09/19 07:36:05;;;;;;;;;;;;;;;24.15;56.03;100893.05;1700885;83;20194;-75
2021/09/19 07:38:37;;;;;;;;;;;;;;;24.15;56.15;100891.63;1706827;83;20216;-76
2021/09/19 07:41:10;;;;;;;;;;;;;;;24.13;55.78;100898.25;1669677;84;20730;-72
2021/09/19 07:43:43;;;;;;;;;;;;;;;24.06;55.53;100889.43;1707865;83;20188;-74
2021/09/19 07:46:16;;;;;;;;;;;;;;;23.99;55.35;100891.99;1698023;83;20346;-73
2021/09/19 07:48:51;;;;;;;;;;;;;;;23.96;56.00;100887.84;1692280;83;20249;-72
2021/09/19 07:51:26;;;;;;;;;;;;;;;23.90;55.25;100886.98;1696189;83;20255;-74
2021/09/19 07:53:59;;;;;;;;;;;;;;;23.77;55.48;100897.37;1693136;83;20365;-74
2021/09/19 07:56:32;;;;;;;;;;;;;;;23.70;55.94;100894.82;1697920;83;20398;-73
2021/09/19 07:59:05;;;;;;;;;;;;;;;23.70;56.29;100891.41;1691078;83;20194;-76
2021/09/19 08:01:38;;;;;;;;;;;;;;;23.73;56.48;100892.16;1713695;82;20251;-74
2021/09/19 08:04:10;;;;;;;;;;;;;;;23.71;56.46;100889.42;1713352;83;20243;-74
2021/09/19 08:06:47;;;;;;;;;;;;;;;23.69;56.54;100883.23;1668214;83;20230;-76
2021/09/19 08:09:20;;;;;;;;;;;;;;;23.64;56.36;100882.04;1740658;81;20193;-85
2021/09/19 08:11:53;;;;;;;;;;;;;;;23.61;56.27;100879.30;1771031;80;20641;-88
2021/09/19 08:14:25;;;;;;;;;;;;;;;23.61;56.71;100884.13;1771428;80;20375;-79
2021/09/19 08:16:57;;;;;;;;;;;;;;;23.63;56.25;100875.52;1772400;80;20292;-85
2021/09/19 08:19:29;;;;;;;;;;;;;;;23.61;55.97;100876.47;1770932;80;20535;-78
2021/09/19 08:22:04;;;;;;;;;;;;;;;23.65;56.52;100880.25;1770373;80;20239;-77
2021/09/19 08:24:37;;;;;;;;;;;;;;;23.70;56.23;100874.97;1764208;80;20279;-75
2021/09/19 08:27:10;;;;;;;;;;;;;;;23.77;56.24;100871.84;1769758;80;20614;-79
2021/09/19 08:29:41;;;;;;;;;;;;;;;23.86;56.04;100873.20;1766879;80;20274;-76
2021/09/19 08:32:14;;;;;;;;;;;;;;;23.91;55.98;100863.95;1770995;80;20242;-75
2021/09/19 08:34:46;;;;;;;;;;;;;;;23.95;56.11;100866.31;1796036;80;20182;-85
2021/09/19 08:37:18;;;;;;;;;;;;;;;23.98;55.87;100861.95;1769389;80;20241;-81
2021/09/19 08:39:51;;;;;;;;;;;;;;;24.00;56.55;100861.86;1769826;81;20179;-80
2021/09/19 08:42:23;;;;;;;;;;;;;;;24.03;56.36;100856.08;1772144;80;20196;-76
2021/09/19 08:44:56;;;;;;;;;;;;;;;24.00;56.14;100854.77;1749511;81;20632;-82
2021/09/19 08:47:30;;;;;;;;;;;;;;;23.96;56.25;100851.55;1756287;80;20187;-82
2021/09/19 08:50:12;;;;;;;;;;;;;;;23.99;57.03;100848.01;1740917;80;20232;-82
2021/09/19 08:52:50;;;;;;;;;;;;;;;24.01;56.16;100851.34;1773095;80;20189;-85
2021/09/19 08:55:23;;;;;;;;;;;;;;;23.94;55.90;100851.05;1763085;81;20282;-78
2021/09/19 08:58:00;;;;;;;;;;;;;;;23.81;55.64;100845.88;1767437;80;20598;-80
2021/09/19 09:00:48;;;;;;;;;;;;;;;23.70;56.02;100835.25;1771763;80;20348;-82
2021/09/19 09:03:22;;;;;;;;;;;;;;;23.63;56.25;100831.56;1773653;80;20253;-77
2021/09/19 09:05:55;;;;;;;;;;;;;;;23.58;56.61;100833.78;1772280;80;20201;-81
2021/09/19 09:08:27;;;;;;;;;;;;;;;23.55;56.37;100835.30;1769312;80;20358;-83
2021/09/19 09:11:01;;;;;;;;;;;;;;;23.48;56.99;100827.89;1763040;80;20325;-84
2021/09/19 09:13:39;;;;;;;;;;;;;;;23.45;56.62;100835.69;1765279;80;20581;-80
2021/09/19 09:16:16;;;;;;;;;;;;;;;23.41;56.31;100831.86;1769022;80;20284;-77
2021/09/19 09:18:55;;;;;;;;;;;;;;;23.36;56.04;100828.41;1769049;80;20629;-79
2021/09/19 09:21:36;;;;;;;;;;;;;;;23.30;55.67;100822.68;1762888;80;20253;-78
2021/09/19 09:24:13;;;;;;;;;;;;;;;23.30;56.00;100825.52;1771451;80;20221;-76
2021/09/19 09:26:44;;;;;;;;;;;;;;;23.35;55.69;100826.75;1770276;80;20193;-82
2021/09/19 09:29:16;;;;;;;;;;;;;;;23.41;55.76;100815.45;1763355;80;20215;-79
2021/09/19 09:31:58;;;;;;;;;;;;;;;23.47;55.37;100824.00;1759375;80;20229;-77
2021/09/19 09:34:26;;;;;;;;;;;;;;;23.53;54.90;100826.89;1764101;80;20245;-77
2021/09/19 09:37:02;;;;;;;;;;;;;;;23.57;54.73;100816.50;1768739;80;20211;-75
2021/09/19 09:39:39;;;;;;;;;;;;;;;23.62;54.75;100814.88;1771457;80;20187;-76
2021/09/19 09:42:20;;;;;;;;;;;;;;;23.67;54.05;100821.77;1757999;80;20394;-78
2021/09/19 09:44:56;;;;;;;;;;;;;;;23.70;54.08;100821.06;1767735;80;20255;-76
2021/09/19 09:47:33;;;;;;;;;;;;;;;23.68;53.45;100825.69;1770321;80;20294;-75
2021/09/19 09:50:05;;;;;;;;;;;;;;;23.64;52.75;100821.06;1768989;80;20189;-78
2021/09/19 09:52:39;;;;;;;;;;;;;;;23.52;52.59;100816.72;1771561;80;20193;-77
2021/09/19 09:55:13;;;;;;;;;;;;;;;23.49;53.30;100818.81;1770549;80;20339;-78
2021/09/19 09:58:08;;;;;;;;;;;;;;;23.47;53.74;100812.66;1759027;80;20209;-77
2021/09/19 10:00:40;;;;;;;;;;;;;;;23.49;53.64;100818.23;1762277;80;20249;-78
2021/09/19 10:03:13;;;;;;;;;;;;;;;23.57;53.66;100822.16;1786571;80;20222;-77
2021/09/19 10:05:45;;;;;;;;;;;;;;;23.60;53.35;100810.96;1764019;80;20265;-77
2021/09/19 10:08:18;;;;;;;;;;;;;;;23.65;53.29;100802.26;1769133;80;20185;-75
2021/09/19 10:10:50;;;;;;;;;;;;;;;23.73;53.41;100805.64;1763097;80;20192;-78
2021/09/19 10:13:22;;;;;;;;;;;;;;;23.80;53.07;100805.91;1733892;81;20725;-83
2021/09/19 10:15:56;;;;;;;;;;;;;;;23.84;52.48;100801.80;1724572;82;20196;-82
2021/09/19 10:18:29;;;;;;;;;;;;;;;23.87;52.36;100803.92;1724312;82;20196;-83
2021/09/19 10:21:02;;;;;;;;;;;;;;;23.91;51.71;100808.61;1725970;82;20264;-82
2021/09/19 10:23:34;;;;;;;;;;;;;;;23.92;52.03;100807.44;1722452;82;20224;-80
2021/09/19 10:26:18;;;;;;;;;;;;;;;23.92;52.96;100799.50;1721272;82;20552;-81
2021/09/19 10:28:52;;;;;;;;;;;;;;;23.95;53.06;100808.75;1723592;82;20220;-83
2021/09/19 10:31:24;;;;;;;;;;;;;;;23.97;53.97;100804.97;1730504;82;20192;-85
2021/09/19 10:34:01;;;;;;;;;;;;;;;23.97;54.14;100794.45;1691061;82;20674;-86
2021/09/19 10:36:36;;;;;;;;;;;;;;;23.93;54.14;100799.73;1720597;82;20208;-73
2021/09/19 10:39:16;;;;;;;;;;;;;;;23.87;54.66;100784.94;1724236;82;20267;-75
2021/09/19 10:42:14;;;;;;;;;;;;;;;23.89;55.25;100795.34;1723420;82;20315;-79
2021/09/19 10:44:49;;;;;;;;;;;;;;;23.93;55.65;100791.22;1724373;82;20330;-83
2021/09/19 10:47:27;;;;;;;;;;;;;;;23.95;55.11;100797.40;1726739;82;20255;-84
2021/09/19 10:50:22;;;;;;;;;;;;;;;23.87;55.81;100789.19;1725947;82;20311;-82
2021/09/19 10:52:56;;;;;;;;;;;;;;;23.86;55.86;100792.34;1706305;83;20279;-76
2021/09/19 10:55:49;;;;;;;;;;;;;;;23.73;55.40;100784.37;1720195;83;20295;-76
2021/09/19 10:58:30;;;;;;;;;;;;;;;23.52;56.24;100775.61;1719938;83;20299;-78
2021/09/19 11:01:11;;;;;;;;;;;;;;;23.43;57.42;100775.66;1722004;82;20601;-78
2021/09/19 11:03:46;;;;;;;;;;;;;;;23.45;56.44;100768.20;1710197;83;20267;-86
2021/09/19 11:06:23;;;;;;;;;;;;;;;23.39;57.43;100772.42;1721304;82;20601;-86
2021/09/19 11:08:55;;;;;;;;;;;;;;;23.45;57.64;100767.63;1722164;82;20398;-86
2021/09/19 11:11:29;;;;;;;;;;;;;;;23.52;57.55;100766.49;1719911;83;20199;-75
2021/09/19 11:14:01;;;;;;;;;;;;;;;23.58;57.45;100768.55;1743074;80;20625;-73
2021/09/19 11:16:38;;;;;;;;;;;;;;;23.66;57.59;100765.63;1720244;83;20239;-80
2021/09/19 11:19:12;;;;;;;;;;;;;;;23.74;56.92;100769.00;1632077;86;20623;-79
2021/09/19 11:21:44;;;;;;;;;;;;;;;23.81;56.57;100771.27;1632870;86;20547;-86
2021/09/19 11:24:19;;;;;;;;;;;;;;;23.86;56.35;100766.80;1635078;86;20559;-84
2021/09/19 11:26:53;;;;;;;;;;;;;;;23.82;55.90;100770.08;1637987;86;20559;-80
2021/09/19 11:29:25;;;;;;;;;;;;;;;23.74;55.47;100766.16;1606210;89;20338;-85
2021/09/19 11:31:58;;;;;;;;;;;;;;;23.65;55.37;100770.25;1606306;89;20547;-83
2021/09/19 11:34:31;;;;;;;;;;;;;;;23.59;55.67;100763.93;1610075;88;20256;-82
2021/09/19 11:37:04;;;;;;;;;;;;;;;23.53;55.34;100765.92;1622732;86;20206;-83
2021/09/19 11:39:36;;;;;;;;;;;;;;;23.45;55.77;100762.53;1676913;85;20199;-83
2021/09/19 11:42:12;;;;;;;;;;;;;;;23.33;55.95;100761.88;1673939;84;20198;-83
2021/09/19 11:44:51;;;;;;;;;;;;;;;23.25;56.46;100756.27;1638907;86;20246;-82
2021/09/19 11:47:24;;;;;;;;;;;;;;;23.20;57.08;100748.80;1660114;85;20207;-84
2021/09/19 11:49:57;;;;;;;;;;;;;;;23.21;57.68;100752.44;1655564;85;20580;-82
2021/09/19 11:52:36;;;;;;;;;;;;;;;23.24;57.60;100753.19;1657420;86;20196;-83
2021/09/19 11:58:18;;;;;;;;;;;;;;;23.29;56.49;100755.83;1670776;84;20225;-77
2021/09/19 12:00:55;;;;;;;;;;;;;;;23.32;58.00;100750.30;1669531;85;20259;-77
2021/09/19 12:03:28;;;;;;;;;;;;;;;23.40;57.87;100759.33;1671697;86;20262;-78
2021/09/19 12:06:01;;;;;;;;;;;;;;;23.46;57.52;100755.11;1666531;84;20634;-83
2021/09/19 12:08:36;;;;;;;;;;;;;;;23.50;57.83;100753.83;1685419;84;20189;-83
2021/09/19 12:11:08;;;;;;;;;;;;;;;23.49;58.25;100757.27;1684018;84;20252;-81
2021/09/19 12:13:44;;;;;;;;;;;;;;;23.49;58.57;100752.17;1670364;83;20292;-81
2021/09/19 12:16:22;;;;;;;;;;;;;;;23.50;58.30;100754.67;1705798;83;20622;-84
2021/09/19 12:18:57;;;;;;;;;;;;;;;23.48;58.63;100753.36;1712879;83;20284;-79
2021/09/19 12:21:31;;;;;;;;;;;;;;;23.45;59.05;100754.03;1716095;83;20233;-80
2021/09/19 12:24:04;;;;;;;;;;;;;;;23.39;59.03;100749.73;1713484;83;20189;-80
2021/09/19 12:26:37;;;;;;;;;;;;;;;23.30;59.39;100748.98;1701385;83;20279;-81
2021/09/19 12:29:11;;;;;;;;;;;;;;;23.22;59.52;100742.19;1700203;83;20262;-80
2021/09/19 12:31:46;;;;;;;;;;;;;;;23.15;59.50;100741.87;1698323;83;20192;-81
2021/09/19 12:34:21;;;;;;;;;;;;;;;23.04;59.31;100738.37;1703719;83;20220;-81
2021/09/19 12:36:55;;;;;;;;;;;;;;;22.97;59.09;100735.25;1701929;83;20262;-80
2021/09/19 12:39:36;;;;;;;;;;;;;;;22.91;59.08;100733.18;1697573;83;20252;-81
2021/09/19 12:42:05;;;;;;;;;;;;;;;22.86;59.22;100727.70;1697334;83;20193;-76
2021/09/19 12:44:37;;;;;;;;;;;;;;;22.86;60.43;100727.70;1713645;83;20186;-75
2021/09/19 12:47:09;;;;;;;;;;;;;;;22.87;60.87;100730.77;1719888;83;20171;-78
2021/09/19 12:49:46;;;;;;;;;;;;;;;22.93;61.43;100727.18;1710001;83;20261;-74
2021/09/19 12:52:18;;;;;;;;;;;;;;;23.00;61.14;100726.89;1696831;83;20235;-72
2021/09/19 12:54:56;;;;;;;;;;;;;;;23.08;60.44;100726.00;1698015;84;20228;-72
2021/09/19 12:57:29;;;;;;;;;;;;;;;23.17;60.70;100720.31;1698823;83;20256;-72
2021/09/19 13:00:03;;;;;;;;;;;;;;;23.25;60.14;100716.01;1698924;83;20228;-77
2021/09/19 13:02:35;;;;;;;;;;;;;;;23.32;59.11;100716.29;1699837;83;20259;-76
2021/09/19 13:05:08;;;;;;;;;;;;;;;23.36;59.23;100717.84;1662842;85;20254;-72
2021/09/19 13:07:40;;;;;;;;;;;;;;;23.41;59.45;100720.48;1713649;82;20184;-73
2021/09/19 13:10:14;;;;;;;;;;;;;;;23.47;58.63;100717.07;1714127;82;20216;-77
2021/09/19 13:12:46;;;;;;;;;;;;;;;23.50;57.18;100719.81;1726287;82;20185;-74